Terminal Aerodrome Forecast
Issued by NWS

Home | Current Version | Previous Version | Text Only | Print | Product List | Glossary On
Versions: 1 2 3 4 5 6 7 8 9 10 11 12 13 14 15 16 17 18 19 20 21 22 23 24 25 26 27 28 29 30 31 32 33 34 35 36 37 38 39 40 41 42 43 44 45 46 47
400
FTUS41 KRNK 230525
TAFLWB
TAF
KLWB 230525Z 2306/2406 00000KT P6SM OVC030
     FM230900 04006KT 4SM -DZ BR OVC010
     FM231400 07005KT 6SM HZ OVC018
     FM231900 VRB04KT P6SM BKN035
     FM240300 00000KT 4SM BR SCT001 BKN050=

USA.gov is the U.S. government's official web portal to all federal, state and local government web resources and services.